createdAt,value
2019-01-24T00:00:49.901Z,95206.67
2019-01-24T00:01:53.223Z,95196.84
2019-01-24T00:02:56.568Z,95188.70
2019-01-24T00:03:59.852Z,95188.41
2019-01-24T00:05:03.571Z,95176.84
2019-01-24T00:06:06.851Z,95176.13
2019-01-24T00:07:10.155Z,95190.11
2019-01-24T00:08:13.453Z,95190.51
2019-01-24T00:09:16.724Z,95190.11
2019-01-24T00:10:20.004Z,95174.72
2019-01-24T00:11:23.284Z,95170.11
2019-01-24T00:12:26.587Z,95155.28
2019-01-24T00:13:29.879Z,95173.17
2019-01-24T00:14:33.168Z,95175.73
2019-01-24T00:15:36.514Z,95169.27
2019-01-24T00:16:39.860Z,95194.38
2019-01-24T00:17:43.163Z,95225.19
2019-01-24T00:18:46.444Z,95237.80
2019-01-24T00:19:52.207Z,95247.13
2019-01-24T00:20:55.466Z,95234.52
2019-01-24T00:21:58.745Z,95235.34
2019-01-24T00:23:02.028Z,95226.45
2019-01-24T00:24:05.307Z,95219.14
2019-01-24T00:25:09.522Z,95200.86
2019-01-24T00:26:12.791Z,95216.41
2019-01-24T00:27:16.071Z,95203.20
2019-01-24T00:28:19.380Z,95209.19
2019-01-24T00:29:22.756Z,95210.08
2019-01-24T00:30:26.040Z,95204.81
2019-01-24T00:31:29.321Z,95205.58
2019-01-24T00:32:32.608Z,95210.36
2019-01-24T00:33:35.920Z,95205.64
2019-01-24T00:34:39.241Z,95203.91
2019-01-24T00:35:42.896Z,95198.14
2019-01-24T00:36:46.172Z,95196.58
2019-01-24T00:37:49.463Z,95200.60
2019-01-24T00:38:52.770Z,95202.80
2019-01-24T00:39:56.048Z,95206.80
2019-01-24T00:40:59.319Z,95196.83
2019-01-24T00:42:02.590Z,95196.99
2019-01-24T00:43:05.867Z,95190.91
2019-01-24T00:44:09.189Z,95184.20
2019-01-24T00:45:12.858Z,95179.70
2019-01-24T00:46:16.133Z,95174.22
2019-01-24T00:47:19.486Z,95188.19
2019-01-24T00:48:22.851Z,95174.58
2019-01-24T00:49:26.498Z,95168.43
2019-01-24T00:50:29.775Z,95163.47
2019-01-24T00:51:33.053Z,95163.32
2019-01-24T00:52:36.338Z,95165.19
2019-01-24T00:53:39.625Z,95171.00
2019-01-24T00:54:42.941Z,95175.52
2019-01-24T00:55:46.232Z,95173.27
2019-01-24T00:56:49.501Z,95159.53
2019-01-24T00:57:52.779Z,95161.63
2019-01-24T00:58:57.048Z,95170.17
2019-01-24T01:00:00.359Z,95168.41
2019-01-24T01:01:03.720Z,95175.56
2019-01-24T01:02:07.010Z,95175.97
2019-01-24T01:03:10.289Z,95178.65
2019-01-24T01:04:13.934Z,95182.45
2019-01-24T01:05:17.268Z,95185.23
2019-01-24T01:06:20.543Z,95188.68
2019-01-24T01:07:23.824Z,95185.92
2019-01-24T01:08:27.490Z,95186.36
2019-01-24T01:09:30.756Z,95181.64
2019-01-24T01:10:34.059Z,95184.57
2019-01-24T01:11:37.704Z,95182.95
2019-01-24T01:12:40.972Z,95191.72
2019-01-24T01:13:44.244Z,95213.45
2019-01-24T01:14:47.861Z,95222.87
2019-01-24T01:15:51.554Z,95214.87
2019-01-24T01:16:54.920Z,95213.09
2019-01-24T01:17:58.304Z,95205.08
2019-01-24T01:19:01.652Z,95202.15
2019-01-24T01:20:08.422Z,95210.94
2019-01-24T01:21:11.842Z,95209.60
2019-01-24T01:22:15.137Z,95209.67
2019-01-24T01:23:18.577Z,95222.53
2019-01-24T01:24:21.852Z,95224.38
2019-01-24T01:25:25.135Z,95235.16
2019-01-24T01:26:28.443Z,95241.14
2019-01-24T01:27:31.724Z,95240.42
2019-01-24T01:28:34.998Z,95229.87
2019-01-24T01:29:38.384Z,95216.27
2019-01-24T01:30:41.728Z,95202.59
2019-01-24T01:31:45.038Z,95207.20
2019-01-24T01:32:48.391Z,95204.81
2019-01-24T01:33:51.668Z,95206.39
2019-01-24T01:34:54.950Z,95208.46
2019-01-24T01:35:58.227Z,95199.97
2019-01-24T01:37:01.607Z,95198.15
2019-01-24T01:38:04.959Z,95199.04
2019-01-24T01:39:08.350Z,95192.23
2019-01-24T01:40:13.992Z,95190.13
2019-01-24T01:41:17.275Z,95182.73
2019-01-24T01:42:20.595Z,95170.78
2019-01-24T01:43:23.869Z,95163.86
2019-01-24T01:44:27.156Z,95165.36
2019-01-24T01:45:30.441Z,95158.86
2019-01-24T01:46:33.720Z,95155.82
2019-01-24T01:47:37.039Z,95153.42
2019-01-24T01:48:40.311Z,95149.48
2019-01-24T01:49:43.596Z,95139.77
2019-01-24T01:50:46.882Z,95146.77
2019-01-24T01:51:50.152Z,95129.40
2019-01-24T01:52:53.466Z,95136.34
2019-01-24T01:53:57.036Z,95144.88
2019-01-24T01:55:00.319Z,95143.27
2019-01-24T01:56:03.672Z,95147.04
2019-01-24T01:57:07.021Z,95148.59
2019-01-24T01:58:10.722Z,95148.54
2019-01-24T01:59:13.997Z,95137.73
2019-01-24T02:00:22.616Z,95135.95
2019-01-24T02:01:25.905Z,95140.80
2019-01-24T02:02:30.102Z,95144.36
2019-01-24T02:03:33.402Z,95143.74
2019-01-24T02:04:42.729Z,95139.69
2019-01-24T02:05:41.695Z,95137.86
2019-01-24T02:06:44.964Z,95139.91
2019-01-24T02:07:48.631Z,95130.42
2019-01-24T02:08:51.930Z,95139.41
2019-01-24T02:09:55.209Z,95144.36
2019-01-24T02:10:58.474Z,95141.91
2019-01-24T02:12:01.742Z,95146.06
2019-01-24T02:13:05.013Z,95147.52
2019-01-24T02:14:08.388Z,95151.30
2019-01-24T02:15:13.622Z,95153.13
2019-01-24T02:16:16.959Z,95150.05
2019-01-24T02:17:20.236Z,95144.30
2019-01-24T02:18:23.921Z,95143.45
2019-01-24T02:19:27.226Z,95147.17
2019-01-24T02:20:30.495Z,95154.40
2019-01-24T02:21:33.764Z,95140.09
2019-01-24T02:22:37.607Z,95132.38
2019-01-24T02:23:40.887Z,95129.30
2019-01-24T02:24:44.199Z,95133.30
2019-01-24T02:25:47.476Z,95139.95
2019-01-24T02:26:50.748Z,95147.09
2019-01-24T02:27:54.015Z,95144.78
2019-01-24T02:28:57.282Z,95143.52
2019-01-24T02:30:00.651Z,95138.50
2019-01-24T02:31:04.328Z,95120.03
2019-01-24T02:32:07.606Z,95119.76
2019-01-24T02:33:11.801Z,95123.42
2019-01-24T02:34:15.070Z,95138.57
2019-01-24T02:35:18.381Z,95140.52
2019-01-24T02:36:21.732Z,95140.95
2019-01-24T02:37:25.002Z,95133.16
2019-01-24T02:38:28.282Z,95133.86
2019-01-24T02:39:31.550Z,95128.59
2019-01-24T02:40:34.872Z,95135.69
2019-01-24T02:41:38.549Z,95133.23
2019-01-24T02:42:41.828Z,95134.57
2019-01-24T02:43:45.533Z,95137.92
2019-01-24T02:44:48.811Z,95135.40
2019-01-24T02:45:52.111Z,95134.97
2019-01-24T02:46:55.382Z,95125.86
2019-01-24T02:47:58.655Z,95121.02
2019-01-24T02:49:02.003Z,95120.26
2019-01-24T02:50:11.235Z,95121.38
2019-01-24T02:51:14.542Z,95132.95
2019-01-24T02:52:17.819Z,95140.80
2019-01-24T02:53:21.089Z,95141.23
2019-01-24T02:54:24.348Z,95135.41
2019-01-24T02:55:27.623Z,95134.62
2019-01-24T02:56:30.934Z,95137.85
2019-01-24T02:57:34.213Z,95133.43
2019-01-24T02:58:37.585Z,95139.63
2019-01-24T02:59:40.851Z,95146.69
2019-01-24T03:00:44.127Z,95144.45
2019-01-24T03:01:47.436Z,95142.91
2019-01-24T03:02:50.785Z,95143.53
2019-01-24T03:03:54.052Z,95146.13
2019-01-24T03:04:57.354Z,95147.40
2019-01-24T03:06:00.628Z,95147.73
2019-01-24T03:07:03.936Z,95153.28
2019-01-24T03:08:07.220Z,95152.85
2019-01-24T03:09:10.505Z,95153.06
2019-01-24T03:10:14.727Z,95161.12
2019-01-24T03:11:18.003Z,95164.39
2019-01-24T03:12:21.318Z,95162.71
2019-01-24T03:13:24.593Z,95157.37
2019-01-24T03:14:28.198Z,95159.50
2019-01-24T03:15:31.471Z,95158.22
2019-01-24T03:16:34.756Z,95155.78
2019-01-24T03:17:38.049Z,95143.58
2019-01-24T03:18:41.323Z,95141.21
2019-01-24T03:19:44.608Z,95135.11
2019-01-24T03:20:47.891Z,95142.42
2019-01-24T03:21:51.180Z,95140.89
2019-01-24T03:22:54.487Z,95146.77
2019-01-24T03:23:57.765Z,95144.33
2019-01-24T03:25:01.040Z,95146.14
2019-01-24T03:26:04.332Z,95141.28
2019-01-24T03:27:07.624Z,95143.20
2019-01-24T03:28:10.933Z,95142.47
2019-01-24T03:29:14.203Z,95140.41
2019-01-24T03:30:22.003Z,95139.69
2019-01-24T03:31:25.756Z,95128.27
2019-01-24T03:32:29.034Z,95126.86
2019-01-24T03:33:32.406Z,95128.48
2019-01-24T03:34:35.682Z,95123.53
2019-01-24T03:35:38.957Z,95123.31
2019-01-24T03:36:42.235Z,95125.20
2019-01-24T03:37:45.516Z,95129.26
2019-01-24T03:38:48.827Z,95125.00
2019-01-24T03:39:52.467Z,95133.66
2019-01-24T03:40:55.753Z,95138.95
2019-01-24T03:41:59.025Z,95130.41
2019-01-24T03:43:02.299Z,95136.23
2019-01-24T03:44:05.629Z,95135.01
2019-01-24T03:45:11.535Z,95135.41
2019-01-24T03:46:15.212Z,95134.67
2019-01-24T03:47:18.540Z,95133.10
2019-01-24T03:48:21.824Z,95144.02
2019-01-24T03:49:25.131Z,95148.73
2019-01-24T03:50:28.400Z,95148.95
2019-01-24T03:51:31.761Z,95148.39
2019-01-24T03:52:35.040Z,95148.32
2019-01-24T03:53:38.391Z,95147.48
2019-01-24T03:54:41.712Z,95144.11
2019-01-24T03:55:44.995Z,95144.02
2019-01-24T03:56:48.265Z,95149.34
2019-01-24T03:57:51.537Z,95149.09
2019-01-24T03:58:54.852Z,95150.20
2019-01-24T03:59:58.157Z,95146.34
2019-01-24T04:01:01.436Z,95152.16
2019-01-24T04:02:04.737Z,95154.00
2019-01-24T04:03:08.031Z,95150.98
2019-01-24T04:04:11.302Z,95150.53
2019-01-24T04:05:14.633Z,95156.09
2019-01-24T04:06:17.912Z,95155.98
2019-01-24T04:07:21.188Z,95159.06
2019-01-24T04:08:24.470Z,95160.08
2019-01-24T04:09:27.755Z,95157.42
2019-01-24T04:10:31.041Z,95159.39
2019-01-24T04:11:34.319Z,95154.04
2019-01-24T04:12:37.599Z,95153.22
2019-01-24T04:13:40.883Z,95156.95
2019-01-24T04:14:44.469Z,95155.07
2019-01-24T04:15:47.767Z,95153.45
2019-01-24T04:16:51.043Z,95153.52
2019-01-24T04:17:54.369Z,95152.26
2019-01-24T04:18:57.656Z,95145.97
2019-01-24T04:20:01.021Z,95149.70
2019-01-24T04:21:04.423Z,95144.82
2019-01-24T04:22:07.694Z,95148.03
2019-01-24T04:23:10.968Z,95143.67
2019-01-24T04:24:14.251Z,95141.79
2019-01-24T04:25:17.530Z,95144.74
2019-01-24T04:26:20.828Z,95152.80
2019-01-24T04:27:24.105Z,95154.80
2019-01-24T04:28:27.805Z,95153.33
2019-01-24T04:29:31.496Z,95158.84
2019-01-24T04:30:34.784Z,95165.56
2019-01-24T04:31:38.442Z,95159.32
2019-01-24T04:32:41.870Z,95161.23
2019-01-24T04:33:45.153Z,95159.72
2019-01-24T04:34:48.427Z,95163.90
2019-01-24T04:35:51.712Z,95166.85
2019-01-24T04:36:55.024Z,95168.02
2019-01-24T04:37:58.656Z,95168.16
2019-01-24T04:39:01.939Z,95168.12
2019-01-24T04:40:08.754Z,95171.89
2019-01-24T04:41:12.038Z,95172.77
2019-01-24T04:42:15.352Z,95171.07
2019-01-24T04:43:18.633Z,95167.85
2019-01-24T04:44:21.921Z,95170.64
2019-01-24T04:45:25.192Z,95169.13
2019-01-24T04:46:28.549Z,95169.91
2019-01-24T04:47:31.872Z,95169.88
2019-01-24T04:48:35.157Z,95178.08
2019-01-24T04:49:38.441Z,95185.19
2019-01-24T04:50:41.722Z,95189.33
2019-01-24T04:51:45.013Z,95191.39
2019-01-24T04:52:48.321Z,95187.44
2019-01-24T04:53:51.618Z,95188.92
2019-01-24T04:54:54.887Z,95191.91
2019-01-24T04:55:58.168Z,95185.55
2019-01-24T04:57:01.444Z,95187.18
2019-01-24T04:58:04.758Z,95193.57
2019-01-24T04:59:08.036Z,95194.20
2019-01-24T05:00:20.308Z,95195.12
2019-01-24T05:01:23.597Z,95192.56
2019-01-24T05:02:26.877Z,95191.45
2019-01-24T05:03:30.335Z,95195.05
2019-01-24T05:04:33.628Z,95194.42
2019-01-24T05:05:36.910Z,95196.27
2019-01-24T05:06:40.255Z,95198.38
2019-01-24T05:07:43.689Z,95196.71
2019-01-24T05:08:46.974Z,95196.09
2019-01-24T05:09:50.348Z,95194.05
2019-01-24T05:10:53.626Z,95194.56
2019-01-24T05:11:56.921Z,95194.45
2019-01-24T05:13:00.207Z,95198.25
2019-01-24T05:14:03.531Z,95201.48
2019-01-24T05:15:07.279Z,95201.59
2019-01-24T05:16:10.664Z,95202.36
2019-01-24T05:17:13.948Z,95202.31
2019-01-24T05:18:17.226Z,95201.15
2019-01-24T05:19:20.619Z,95203.30
2019-01-24T05:20:23.983Z,95211.28
2019-01-24T05:21:27.331Z,95206.17
2019-01-24T05:22:30.683Z,95204.95
2019-01-24T05:23:33.963Z,95195.67
2019-01-24T05:24:37.275Z,95197.05
2019-01-24T05:25:40.625Z,95202.41
2019-01-24T05:26:43.899Z,95204.59
2019-01-24T05:27:47.175Z,95201.84
2019-01-24T05:28:50.455Z,95208.20
2019-01-24T05:29:53.767Z,95204.98
2019-01-24T05:30:57.053Z,95206.31
2019-01-24T05:32:00.337Z,95196.52
2019-01-24T05:33:03.626Z,95202.50
2019-01-24T05:34:06.907Z,95202.83
2019-01-24T05:35:11.799Z,95201.72
2019-01-24T05:36:15.088Z,95206.90
2019-01-24T05:37:18.752Z,95206.67
2019-01-24T05:38:22.043Z,95214.87
2019-01-24T05:39:25.329Z,95214.47
2019-01-24T05:40:28.628Z,95216.77
2019-01-24T05:41:32.057Z,95222.08
2019-01-24T05:42:35.786Z,95217.02
2019-01-24T05:43:39.071Z,95217.16
2019-01-24T05:44:42.355Z,95216.59
2019-01-24T05:45:45.777Z,95216.48
2019-01-24T05:46:49.067Z,95212.72
2019-01-24T05:47:52.345Z,95216.13
2019-01-24T05:48:55.627Z,95220.23
2019-01-24T05:49:58.909Z,95221.61
2019-01-24T05:51:02.216Z,95217.31
2019-01-24T05:52:05.561Z,95215.41
2019-01-24T05:53:08.841Z,95219.81
2019-01-24T05:54:12.127Z,95227.63
2019-01-24T05:55:15.419Z,95218.64
2019-01-24T05:56:18.733Z,95223.55
2019-01-24T05:57:22.106Z,95220.53
2019-01-24T05:58:25.383Z,95215.10
2019-01-24T05:59:28.650Z,95210.64
2019-01-24T06:00:33.698Z,95213.52
2019-01-24T06:01:37.388Z,95211.36
2019-01-24T06:02:40.676Z,95211.61
2019-01-24T06:03:43.955Z,95213.94
2019-01-24T06:04:47.325Z,95215.98
2019-01-24T06:05:50.593Z,95212.91
2019-01-24T06:06:53.972Z,95209.51
2019-01-24T06:07:57.262Z,95212.14
2019-01-24T06:09:00.536Z,95208.38
2019-01-24T06:10:06.024Z,95215.55
2019-01-24T06:11:11.190Z,95213.96
2019-01-24T06:12:14.503Z,95212.41
2019-01-24T06:13:17.874Z,95211.89
2019-01-24T06:14:21.153Z,95213.87
2019-01-24T06:15:24.436Z,95215.80
2019-01-24T06:16:27.708Z,95219.78
2019-01-24T06:17:31.018Z,95219.64
2019-01-24T06:18:34.312Z,95220.34
2019-01-24T06:19:37.588Z,95216.69
2019-01-24T06:20:40.873Z,95217.68
2019-01-24T06:21:44.148Z,95227.21
2019-01-24T06:22:47.461Z,95229.76
2019-01-24T06:23:50.824Z,95232.66
2019-01-24T06:24:54.077Z,95232.44
2019-01-24T06:25:57.781Z,95233.52
2019-01-24T06:27:01.065Z,95236.41
2019-01-24T06:28:04.534Z,95235.52
2019-01-24T06:29:07.819Z,95235.98
2019-01-24T06:30:16.840Z,95230.45
2019-01-24T06:31:20.115Z,95230.78
2019-01-24T06:32:23.399Z,95233.99
2019-01-24T06:33:26.712Z,95230.14
2019-01-24T06:34:29.990Z,95236.02
2019-01-24T06:35:33.380Z,95232.55
2019-01-24T06:36:37.029Z,95238.84
2019-01-24T06:37:40.726Z,95238.84
2019-01-24T06:38:44.898Z,95243.72
2019-01-24T06:39:50.938Z,95247.47
2019-01-24T06:40:54.235Z,95246.63
2019-01-24T06:41:57.504Z,95254.50
2019-01-24T06:43:00.796Z,95256.30
2019-01-24T06:44:04.198Z,95255.66
2019-01-24T06:45:10.651Z,95263.00
2019-01-24T06:46:14.084Z,95259.87
2019-01-24T06:47:17.387Z,95257.43
2019-01-24T06:48:20.672Z,95254.86
2019-01-24T06:49:24.095Z,95256.91
2019-01-24T06:50:27.432Z,95262.92
2019-01-24T06:51:30.798Z,95255.58
2019-01-24T06:52:34.098Z,95261.53
2019-01-24T06:53:40.551Z,95264.50
2019-01-24T06:54:43.888Z,95264.64
2019-01-24T06:55:47.543Z,95271.09
2019-01-24T06:56:50.827Z,95271.79
2019-01-24T06:57:54.450Z,95274.25
2019-01-24T06:58:57.771Z,95274.42
2019-01-24T07:00:01.133Z,95267.36
2019-01-24T07:01:04.416Z,95268.80
2019-01-24T07:02:07.769Z,95271.92
2019-01-24T07:03:11.137Z,95275.84
2019-01-24T07:04:14.457Z,95271.98
2019-01-24T07:05:17.744Z,95280.41
2019-01-24T07:06:21.016Z,95277.09
2019-01-24T07:07:24.658Z,95273.98
2019-01-24T07:08:27.941Z,95273.38
2019-01-24T07:09:31.269Z,95274.17
2019-01-24T07:10:34.629Z,95274.86
2019-01-24T07:11:37.908Z,95269.19
2019-01-24T07:12:41.621Z,95270.16
2019-01-24T07:13:44.936Z,95276.00
2019-01-24T07:14:48.234Z,95273.31
2019-01-24T07:15:51.871Z,95279.72
2019-01-24T07:16:56.792Z,95277.25
2019-01-24T07:18:00.139Z,95275.73
2019-01-24T07:19:03.449Z,95272.14
2019-01-24T07:20:09.791Z,95273.56
2019-01-24T07:21:13.066Z,95270.05
2019-01-24T07:22:16.383Z,95273.70
2019-01-24T07:23:19.661Z,95277.88
2019-01-24T07:24:23.068Z,95278.77
2019-01-24T07:25:27.897Z,95279.62
2019-01-24T07:26:31.279Z,95276.93
2019-01-24T07:27:34.663Z,95270.20
2019-01-24T07:28:38.040Z,95275.37
2019-01-24T07:29:41.358Z,95271.38
2019-01-24T07:30:44.642Z,95266.50
2019-01-24T07:31:48.031Z,95267.17
2019-01-24T07:32:51.388Z,95265.69
2019-01-24T07:33:54.677Z,95263.02
2019-01-24T07:34:58.027Z,95272.23
2019-01-24T07:36:03.098Z,95274.03
2019-01-24T07:37:06.393Z,95269.96
2019-01-24T07:38:11.644Z,95267.48
2019-01-24T07:39:14.942Z,95269.02
2019-01-24T07:40:19.779Z,95272.03
2019-01-24T07:41:23.118Z,95272.92
2019-01-24T07:42:26.383Z,95279.50
2019-01-24T07:43:29.680Z,95273.95
2019-01-24T07:44:32.967Z,95279.66
2019-01-24T07:45:39.647Z,95278.77
2019-01-24T07:46:42.911Z,95281.63
2019-01-24T07:47:46.195Z,95280.73
2019-01-24T07:48:52.553Z,95280.91
2019-01-24T07:49:55.823Z,95267.88
2019-01-24T07:50:59.136Z,95287.32
2019-01-24T07:52:07.092Z,95287.88
2019-01-24T07:53:12.078Z,95289.52
2019-01-24T07:54:16.875Z,95293.02
2019-01-24T07:55:27.694Z,95293.73
2019-01-24T07:56:31.002Z,95293.91
2019-01-24T07:57:37.356Z,95292.87
2019-01-24T07:58:40.715Z,95295.56
2019-01-24T07:59:44.000Z,95293.59
2019-01-24T08:00:47.276Z,95301.84
2019-01-24T08:01:50.613Z,95304.61
2019-01-24T08:02:53.899Z,95307.80
2019-01-24T08:03:57.187Z,95312.78
2019-01-24T08:05:00.474Z,95304.44
2019-01-24T08:06:09.010Z,95309.95
2019-01-24T08:07:08.779Z,95308.06
2019-01-24T08:08:12.065Z,95309.17
2019-01-24T08:09:15.413Z,95316.38
2019-01-24T08:10:20.735Z,95319.36
2019-01-24T08:11:24.016Z,95319.91
2019-01-24T08:12:27.391Z,95318.54
2019-01-24T08:13:30.685Z,95323.45
2019-01-24T08:14:34.316Z,95323.64
2019-01-24T08:15:37.680Z,95331.07
2019-01-24T08:16:40.951Z,95335.20
2019-01-24T08:17:44.501Z,95335.68
2019-01-24T08:18:47.780Z,95336.79
2019-01-24T08:19:51.076Z,95340.78
2019-01-24T08:20:54.531Z,95340.23
2019-01-24T08:21:57.808Z,95337.67
2019-01-24T08:23:01.134Z,95340.01
2019-01-24T08:24:04.412Z,95348.05
2019-01-24T08:25:09.241Z,95345.13
2019-01-24T08:26:12.524Z,95346.69
2019-01-24T08:27:15.811Z,95352.09
2019-01-24T08:28:19.314Z,95349.82
2019-01-24T08:29:22.981Z,95353.59
2019-01-24T08:30:31.311Z,95357.80
2019-01-24T08:31:34.593Z,95360.66
2019-01-24T08:32:38.205Z,95361.10
2019-01-24T08:33:41.693Z,95359.56
2019-01-24T08:34:44.979Z,95359.45
2019-01-24T08:35:48.724Z,95361.42
2019-01-24T08:36:52.001Z,95360.53
2019-01-24T08:37:55.662Z,95364.23
2019-01-24T08:38:59.055Z,95365.94
2019-01-24T08:40:02.522Z,95372.70
2019-01-24T08:41:05.766Z,95375.55
2019-01-24T08:42:09.054Z,95374.22
2019-01-24T08:43:12.402Z,95373.73
2019-01-24T08:44:15.727Z,95374.70
2019-01-24T08:45:19.014Z,95377.14
2019-01-24T08:46:22.390Z,95382.84
2019-01-24T08:47:25.680Z,95381.25
2019-01-24T08:48:28.970Z,95383.65
2019-01-24T08:49:32.619Z,95381.38
2019-01-24T08:50:35.882Z,95378.66
2019-01-24T08:51:39.174Z,95380.40
2019-01-24T08:52:42.766Z,95386.45
2019-01-24T08:53:46.049Z,95387.95
2019-01-24T08:54:49.439Z,95391.54
2019-01-24T08:55:52.844Z,95390.42
2019-01-24T08:56:56.120Z,95386.20
2019-01-24T08:57:59.431Z,95387.05
2019-01-24T08:59:03.077Z,95386.20
2019-01-24T09:00:09.654Z,95384.33
2019-01-24T09:01:12.956Z,95391.21
2019-01-24T09:02:16.615Z,95393.31
2019-01-24T09:03:19.905Z,95394.26
2019-01-24T09:04:23.196Z,95396.86
2019-01-24T09:05:26.603Z,95394.17
2019-01-24T09:06:29.850Z,95392.40
2019-01-24T09:07:33.136Z,95396.84
2019-01-24T09:08:36.435Z,95390.66
2019-01-24T09:09:40.367Z,95389.13
2019-01-24T09:10:43.683Z,95398.13
2019-01-24T09:11:47.120Z,95396.50
2019-01-24T09:12:50.394Z,95399.28
2019-01-24T09:13:53.704Z,95394.44
2019-01-24T09:14:57.000Z,95393.73
2019-01-24T09:16:00.308Z,95390.53
2019-01-24T09:17:03.587Z,95387.32
2019-01-24T09:18:07.141Z,95381.87
2019-01-24T09:19:10.425Z,95387.83
2019-01-24T09:20:18.627Z,95381.11
2019-01-24T09:21:21.932Z,95377.60
2019-01-24T09:22:25.217Z,95379.23
2019-01-24T09:23:28.587Z,95379.16
2019-01-24T09:24:31.881Z,95381.27
2019-01-24T09:25:35.162Z,95382.83
2019-01-24T09:26:38.568Z,95392.60
2019-01-24T09:27:44.735Z,95383.47
2019-01-24T09:28:48.015Z,95383.26
2019-01-24T09:29:51.310Z,95385.64
2019-01-24T09:30:54.575Z,95393.66
2019-01-24T09:31:57.903Z,95390.62
2019-01-24T09:33:01.172Z,95388.42
2019-01-24T09:34:04.462Z,95390.15
2019-01-24T09:35:10.089Z,95390.62
2019-01-24T09:36:13.367Z,95389.48
2019-01-24T09:37:16.736Z,95396.16
2019-01-24T09:38:20.184Z,95393.70
2019-01-24T09:39:23.464Z,95387.44
2019-01-24T09:40:26.862Z,95381.63
2019-01-24T09:41:30.157Z,95386.31
2019-01-24T09:42:33.541Z,95380.36
2019-01-24T09:43:36.819Z,95382.66
2019-01-24T09:44:40.106Z,95385.61
2019-01-24T09:45:43.391Z,95374.37
2019-01-24T09:46:46.740Z,95378.09
2019-01-24T09:47:50.060Z,95370.41
2019-01-24T09:48:53.349Z,95372.69
2019-01-24T09:49:56.709Z,95366.95
2019-01-24T09:51:00.064Z,95363.98
2019-01-24T09:52:03.343Z,95376.63
2019-01-24T09:53:06.689Z,95386.14
2019-01-24T09:54:10.093Z,95388.23
2019-01-24T09:55:13.382Z,95385.64
2019-01-24T09:56:16.666Z,95372.33
2019-01-24T09:57:19.944Z,95372.11
2019-01-24T09:58:23.236Z,95367.97
2019-01-24T09:59:26.597Z,95367.70
2019-01-24T10:00:32.488Z,95362.97
2019-01-24T10:01:35.832Z,95363.80
2019-01-24T10:02:39.116Z,95358.36
2019-01-24T10:03:42.580Z,95360.73
2019-01-24T10:04:45.858Z,95358.58
2019-01-24T10:05:49.265Z,95366.34
2019-01-24T10:06:52.540Z,95369.19
2019-01-24T10:07:56.215Z,95373.22
2019-01-24T10:08:59.577Z,95369.61
2019-01-24T10:10:04.875Z,95374.13
2019-01-24T10:11:08.145Z,95374.30
2019-01-24T10:12:11.433Z,95379.69
2019-01-24T10:13:14.803Z,95377.23
2019-01-24T10:14:18.114Z,95371.77
2019-01-24T10:15:21.820Z,95378.50
2019-01-24T10:16:25.098Z,95371.34
2019-01-24T10:17:28.530Z,95373.63
2019-01-24T10:18:31.883Z,95375.36
2019-01-24T10:19:35.201Z,95376.65
2019-01-24T10:20:38.482Z,95375.69
2019-01-24T10:21:41.765Z,95372.18
2019-01-24T10:22:45.058Z,95360.75
2019-01-24T10:23:48.324Z,95359.98
2019-01-24T10:24:51.762Z,95351.05
2019-01-24T10:25:55.417Z,95355.16
2019-01-24T10:26:58.773Z,95356.09
2019-01-24T10:28:02.059Z,95357.48
2019-01-24T10:29:05.374Z,95355.69
2019-01-24T10:30:14.470Z,95350.91
2019-01-24T10:31:17.824Z,95353.39
2019-01-24T10:32:21.200Z,95348.20
2019-01-24T10:33:24.483Z,95348.20
2019-01-24T10:34:27.768Z,95354.13
2019-01-24T10:35:31.159Z,95362.13
2019-01-24T10:36:34.445Z,95362.13
2019-01-24T10:37:37.911Z,95362.13
2019-01-24T10:38:41.193Z,95372.91
2019-01-24T10:39:44.495Z,95368.84
2019-01-24T10:40:47.799Z,95369.54
2019-01-24T10:41:51.098Z,95377.53
2019-01-24T10:42:54.379Z,95377.06
2019-01-24T10:43:57.742Z,95373.86
2019-01-24T10:45:01.025Z,95373.86
2019-01-24T10:46:05.222Z,95365.92
2019-01-24T10:47:08.545Z,95365.92
2019-01-24T10:48:12.862Z,95371.86
2019-01-24T10:49:17.813Z,95372.44
2019-01-24T10:50:23.244Z,95373.56
2019-01-24T10:51:26.744Z,95373.56
2019-01-24T10:52:34.084Z,95379.63
2019-01-24T10:53:37.402Z,95375.70
2019-01-24T10:54:40.958Z,95375.70
2019-01-24T10:55:44.308Z,95380.77
2019-01-24T10:56:51.598Z,95387.00
2019-01-24T10:57:56.626Z,95388.80
2019-01-24T10:58:59.980Z,95387.05
2019-01-24T11:00:03.989Z,95379.08
2019-01-24T11:01:07.241Z,95379.08
2019-01-24T11:02:10.566Z,95375.48
2019-01-24T11:03:13.937Z,95386.69
2019-01-24T11:04:17.838Z,95383.63
2019-01-24T11:05:21.277Z,95383.63
2019-01-24T11:06:26.341Z,95390.20
2019-01-24T11:07:29.671Z,95384.96
2019-01-24T11:08:33.035Z,95379.75
2019-01-24T11:09:36.438Z,95390.36
2019-01-24T11:10:39.795Z,95390.36
2019-01-24T11:11:43.970Z,95384.56
2019-01-24T11:12:48.215Z,95390.63
2019-01-24T11:13:51.511Z,95395.09
2019-01-24T11:14:54.793Z,95397.00
2019-01-24T11:15:58.369Z,95395.83
2019-01-24T11:17:01.661Z,95395.83
2019-01-24T11:18:05.756Z,95391.36
2019-01-24T11:19:09.055Z,95392.34
2019-01-24T11:20:14.475Z,95388.64
2019-01-24T11:21:17.905Z,95388.64
2019-01-24T11:22:21.289Z,95397.68
2019-01-24T11:23:26.890Z,95400.07
2019-01-24T11:24:30.264Z,95395.69
2019-01-24T11:25:33.555Z,95395.09
2019-01-24T11:26:36.921Z,95398.37
2019-01-24T11:27:40.192Z,95397.60
2019-01-24T11:28:43.582Z,95397.00
2019-01-24T11:29:46.869Z,95397.00
2019-01-24T11:30:50.164Z,95399.32
2019-01-24T11:31:53.772Z,95399.32
2019-01-24T11:32:57.152Z,95398.98
2019-01-24T11:34:00.522Z,95397.64
2019-01-24T11:35:05.248Z,95391.45
2019-01-24T11:36:08.524Z,95402.02
2019-01-24T11:37:12.056Z,95395.66
2019-01-24T11:38:15.409Z,95397.92
2019-01-24T11:39:18.796Z,95399.34
2019-01-24T11:40:22.093Z,95399.45
2019-01-24T11:41:27.440Z,95385.67
2019-01-24T11:42:30.729Z,95385.67
2019-01-24T11:43:34.084Z,95376.63
2019-01-24T11:44:37.461Z,95391.00
2019-01-24T11:45:43.140Z,95391.00
2019-01-24T11:46:48.064Z,95386.14
2019-01-24T11:47:51.439Z,95386.14
2019-01-24T11:48:56.367Z,95388.81
2019-01-24T11:50:02.460Z,95388.81
2019-01-24T11:51:06.652Z,95391.13
2019-01-24T11:52:09.945Z,95388.81
2019-01-24T11:53:14.862Z,95379.94
2019-01-24T11:54:18.150Z,95379.94
2019-01-24T11:55:21.943Z,95390.09
2019-01-24T11:56:26.733Z,95396.50
2019-01-24T11:57:30.088Z,95399.03
2019-01-24T11:58:33.375Z,95399.03
2019-01-24T11:59:36.662Z,95389.74
2019-01-24T12:00:43.144Z,95394.48
2019-01-24T12:01:46.437Z,95395.25
2019-01-24T12:02:51.370Z,95393.02
2019-01-24T12:03:54.653Z,95398.80
2019-01-24T12:04:59.996Z,95399.42
2019-01-24T12:06:03.322Z,95403.88
2019-01-24T12:07:08.246Z,95403.88
2019-01-24T12:08:13.295Z,95400.09
2019-01-24T12:09:16.583Z,95401.53
2019-01-24T12:10:27.354Z,95405.77
2019-01-24T12:11:30.662Z,95401.74
2019-01-24T12:12:33.949Z,95401.36
2019-01-24T12:13:37.727Z,95393.82
2019-01-24T12:14:41.022Z,95391.23
2019-01-24T12:15:46.280Z,95391.23
2019-01-24T12:16:52.496Z,95397.12
2019-01-24T12:17:55.785Z,95406.41
2019-01-24T12:18:59.148Z,95404.59
2019-01-24T12:20:02.607Z,95406.42
2019-01-24T12:21:05.901Z,95410.07
2019-01-24T12:22:09.222Z,95407.61
2019-01-24T12:23:14.951Z,95409.30
2019-01-24T12:24:18.226Z,95405.39
2019-01-24T12:25:21.518Z,95403.98
2019-01-24T12:26:24.796Z,95408.70
2019-01-24T12:27:28.396Z,95411.48